createdAt,value
2019-01-08T00:01:52.695Z,5.70
2019-01-08T00:04:21.852Z,5.70
2019-01-08T00:06:51.075Z,5.70
2019-01-08T00:09:20.335Z,5.70
2019-01-08T00:11:49.506Z,5.80
2019-01-08T00:14:18.707Z,5.70
2019-01-08T00:16:47.931Z,5.80
2019-01-08T00:19:17.105Z,5.80
2019-01-08T00:21:46.375Z,5.80
2019-01-08T00:24:15.626Z,5.80
2019-01-08T00:26:44.859Z,5.90
2019-01-08T00:29:14.110Z,5.80
2019-01-08T00:31:43.329Z,5.90
2019-01-08T00:34:12.583Z,5.80
2019-01-08T00:36:41.823Z,5.80
2019-01-08T00:39:11.067Z,5.80
2019-01-08T00:41:40.295Z,5.90
2019-01-08T00:44:09.460Z,5.90
2019-01-08T00:46:38.678Z,5.90
2019-01-08T00:49:07.862Z,5.90
2019-01-08T00:51:37.107Z,6.00
2019-01-08T00:54:06.362Z,6.00
2019-01-08T00:56:35.681Z,6.00
2019-01-08T00:59:04.965Z,6.10
2019-01-08T01:01:34.108Z,6.10
2019-01-08T01:04:03.357Z,6.10
2019-01-08T01:06:32.687Z,6.10
2019-01-08T01:09:01.938Z,6.20
2019-01-08T01:11:31.166Z,6.20
2019-01-08T01:14:00.446Z,6.20
2019-01-08T01:16:29.603Z,6.30
2019-01-08T01:18:58.858Z,6.30
2019-01-08T01:21:28.002Z,6.30
2019-01-08T01:23:57.322Z,6.30
2019-01-08T01:26:26.560Z,6.30
2019-01-08T01:28:59.944Z,6.30
2019-01-08T01:31:26.706Z,6.30
2019-01-08T01:33:56.074Z,6.30
2019-01-08T01:36:25.256Z,6.30
2019-01-08T01:38:54.480Z,6.30
2019-01-08T01:41:23.697Z,6.30
2019-01-08T01:43:52.876Z,6.40
2019-01-08T01:46:22.125Z,6.40
2019-01-08T01:48:51.533Z,6.40
2019-01-08T01:51:20.680Z,6.40
2019-01-08T01:53:50.022Z,6.40
2019-01-08T01:56:19.309Z,6.40
2019-01-08T01:58:48.479Z,6.40
2019-01-08T02:01:17.631Z,6.40
2019-01-08T02:03:46.803Z,6.40
2019-01-08T02:06:16.030Z,6.40
2019-01-08T02:08:45.223Z,6.40
2019-01-08T02:11:14.402Z,6.40
2019-01-08T02:13:43.710Z,6.40
2019-01-08T02:16:13.006Z,6.40
2019-01-08T02:18:42.275Z,6.40
2019-01-08T02:21:11.526Z,6.40
2019-01-08T02:23:40.682Z,6.40
2019-01-08T02:26:09.860Z,6.50
2019-01-08T02:28:39.080Z,6.50
2019-01-08T02:31:08.339Z,6.50
2019-01-08T02:33:39.103Z,6.50
2019-01-08T02:36:08.354Z,6.40
2019-01-08T02:38:37.497Z,6.50
2019-01-08T02:41:06.700Z,6.50
2019-01-08T02:43:36.070Z,6.50
2019-01-08T02:46:05.281Z,6.50
2019-01-08T02:48:34.690Z,6.50
2019-01-08T02:51:03.867Z,6.50
2019-01-08T02:53:33.090Z,6.50
2019-01-08T02:56:02.326Z,6.60
2019-01-08T02:58:31.550Z,6.60
2019-01-08T03:01:00.804Z,6.60
2019-01-08T03:03:30.026Z,6.60
2019-01-08T03:05:59.286Z,6.60
2019-01-08T03:08:28.511Z,6.60
2019-01-08T03:10:57.775Z,6.60
2019-01-08T03:13:26.920Z,6.60
2019-01-08T03:15:56.189Z,6.50
2019-01-08T03:18:25.483Z,6.50
2019-01-08T03:20:54.739Z,6.40
2019-01-08T03:23:23.963Z,6.30
2019-01-08T03:25:53.154Z,6.30
2019-01-08T03:28:22.391Z,6.40
2019-01-08T03:30:51.659Z,6.40
2019-01-08T03:33:20.880Z,6.40
2019-01-08T03:35:50.140Z,6.50
2019-01-08T03:38:19.439Z,6.50
2019-01-08T03:40:48.693Z,6.50
2019-01-08T03:43:17.862Z,6.40
2019-01-08T03:45:47.047Z,6.40
2019-01-08T03:48:16.269Z,6.40
2019-01-08T03:50:45.530Z,6.40
2019-01-08T03:53:14.766Z,6.40
2019-01-08T03:55:43.941Z,6.50
2019-01-08T03:58:13.101Z,6.40
2019-01-08T04:00:42.351Z,6.40
2019-01-08T04:03:11.574Z,6.40
2019-01-08T04:05:40.742Z,6.30
2019-01-08T04:08:09.961Z,6.40
2019-01-08T04:10:39.214Z,6.30
2019-01-08T04:13:08.367Z,6.30
2019-01-08T04:15:37.653Z,6.30
2019-01-08T04:18:06.825Z,6.30
2019-01-08T04:20:36.041Z,6.30
2019-01-08T04:23:05.248Z,6.20
2019-01-08T04:25:34.584Z,6.20
2019-01-08T04:28:03.903Z,6.20
2019-01-08T04:30:33.131Z,6.20
2019-01-08T04:33:02.395Z,6.20
2019-01-08T04:35:31.694Z,6.20
2019-01-08T04:38:00.938Z,6.10
2019-01-08T04:40:30.174Z,6.20
2019-01-08T04:42:59.433Z,6.20
2019-01-08T04:45:28.742Z,6.20
2019-01-08T04:47:58.071Z,6.20
2019-01-08T04:50:27.359Z,6.20
2019-01-08T04:52:56.603Z,6.20
2019-01-08T04:55:25.831Z,6.10
2019-01-08T04:57:55.015Z,6.20
2019-01-08T05:00:24.235Z,6.10
2019-01-08T05:02:53.423Z,6.10
2019-01-08T05:05:22.580Z,6.20
2019-01-08T05:07:51.810Z,6.20
2019-01-08T05:10:21.026Z,6.20
2019-01-08T05:12:50.459Z,6.10
2019-01-08T05:15:19.779Z,6.10
2019-01-08T05:17:49.075Z,6.10
2019-01-08T05:20:18.262Z,6.10
2019-01-08T05:22:47.439Z,6.10
2019-01-08T05:25:16.672Z,6.10
2019-01-08T05:27:45.894Z,6.10
2019-01-08T05:30:15.049Z,6.10
2019-01-08T05:32:44.304Z,6.10
2019-01-08T05:35:13.528Z,6.10
2019-01-08T05:37:42.782Z,6.10
2019-01-08T05:40:11.930Z,6.00
2019-01-08T05:42:41.294Z,6.00
2019-01-08T05:45:10.540Z,5.90
2019-01-08T05:47:39.719Z,5.80
2019-01-08T05:50:09.080Z,5.70
2019-01-08T05:52:38.253Z,5.70
2019-01-08T05:55:07.483Z,5.60
2019-01-08T05:57:36.691Z,5.60
2019-01-08T06:00:06.638Z,5.60
2019-01-08T06:02:36.190Z,5.70
2019-01-08T06:05:05.518Z,5.70
2019-01-08T06:07:34.727Z,5.70
2019-01-08T06:10:04.139Z,5.70
2019-01-08T06:12:33.383Z,5.80
2019-01-08T06:15:02.643Z,5.80
2019-01-08T06:17:31.979Z,5.80
2019-01-08T06:20:01.155Z,5.80
2019-01-08T06:22:30.410Z,5.80
2019-01-08T06:25:00.620Z,5.80
2019-01-08T06:27:30.070Z,5.90
2019-01-08T06:29:59.251Z,5.90
2019-01-08T06:32:28.406Z,5.90
2019-01-08T06:34:57.655Z,5.90
2019-01-08T06:37:26.895Z,5.90
2019-01-08T06:39:56.228Z,5.90
2019-01-08T06:42:25.683Z,5.90
2019-01-08T06:44:54.863Z,5.90
2019-01-08T06:47:24.123Z,5.90
2019-01-08T06:49:53.383Z,5.90
2019-01-08T06:52:22.615Z,5.90
2019-01-08T06:54:51.931Z,5.90
2019-01-08T06:57:21.131Z,5.90
2019-01-08T06:59:50.383Z,5.80
2019-01-08T07:02:19.611Z,5.80
2019-01-08T07:04:48.985Z,5.70
2019-01-08T07:07:18.210Z,5.70
2019-01-08T07:09:47.467Z,5.60
2019-01-08T07:12:16.696Z,5.70
2019-01-08T07:14:45.959Z,5.60
2019-01-08T07:17:15.108Z,5.60
2019-01-08T07:19:44.355Z,5.50
2019-01-08T07:22:13.501Z,5.50
2019-01-08T07:24:42.716Z,5.50
2019-01-08T07:27:16.296Z,5.50
2019-01-08T07:29:42.867Z,5.50
2019-01-08T07:32:12.089Z,5.50
2019-01-08T07:34:41.263Z,5.50
2019-01-08T07:37:10.495Z,5.60
2019-01-08T07:39:39.771Z,5.60
2019-01-08T07:42:09.003Z,5.50
2019-01-08T07:44:38.259Z,5.60
2019-01-08T07:47:07.418Z,5.60
2019-01-08T07:49:36.684Z,5.60
2019-01-08T07:52:05.903Z,5.70
2019-01-08T07:54:35.929Z,5.70
2019-01-08T07:57:05.355Z,5.70
2019-01-08T07:59:34.541Z,5.70
2019-01-08T08:02:03.754Z,5.70
2019-01-08T08:04:33.008Z,5.70
2019-01-08T08:07:02.331Z,5.80
2019-01-08T08:09:31.554Z,5.80
2019-01-08T08:12:00.793Z,5.80
2019-01-08T08:14:29.979Z,5.70
2019-01-08T08:16:59.234Z,5.80
2019-01-08T08:19:28.409Z,5.80
2019-01-08T08:21:57.558Z,5.80
2019-01-08T08:24:26.809Z,5.80
2019-01-08T08:26:56.020Z,5.80
2019-01-08T08:29:25.275Z,5.80
2019-01-08T08:31:54.582Z,5.80
2019-01-08T08:34:23.840Z,5.80
2019-01-08T08:36:53.027Z,5.70
2019-01-08T08:39:22.285Z,5.80
2019-01-08T08:41:51.578Z,5.80
2019-01-08T08:44:20.758Z,5.80
2019-01-08T08:46:49.940Z,5.90
2019-01-08T08:49:19.189Z,5.90
2019-01-08T08:51:48.447Z,5.90
2019-01-08T08:54:17.611Z,6.00
2019-01-08T08:56:46.843Z,6.00
2019-01-08T08:59:16.071Z,6.00
2019-01-08T09:01:45.322Z,6.10
2019-01-08T09:04:14.567Z,6.10
2019-01-08T09:06:43.746Z,6.00
2019-01-08T09:09:13.248Z,6.10
2019-01-08T09:11:42.471Z,6.10
2019-01-08T09:14:11.700Z,6.10
2019-01-08T09:16:40.978Z,6.10
2019-01-08T09:19:10.144Z,6.10
2019-01-08T09:21:39.394Z,6.10
2019-01-08T09:24:08.570Z,6.10
2019-01-08T09:26:37.750Z,6.10
2019-01-08T09:29:07.000Z,6.20
2019-01-08T09:31:36.288Z,6.30
2019-01-08T09:34:05.455Z,6.40
2019-01-08T09:36:34.774Z,6.40
2019-01-08T09:39:05.169Z,6.40
2019-01-08T09:41:34.510Z,6.40
2019-01-08T09:44:03.743Z,6.30
2019-01-08T09:46:33.007Z,6.30
2019-01-08T09:49:02.164Z,6.20
2019-01-08T09:51:31.497Z,6.20
2019-01-08T09:54:00.655Z,6.20
2019-01-08T09:56:29.953Z,6.20
2019-01-08T09:58:59.187Z,6.20
2019-01-08T10:01:28.439Z,6.30
2019-01-08T10:03:57.675Z,6.30
2019-01-08T10:06:26.852Z,6.30
2019-01-08T10:08:56.006Z,6.40
2019-01-08T10:11:25.250Z,6.40
2019-01-08T10:13:54.474Z,6.50
2019-01-08T10:16:23.674Z,6.50
2019-01-08T10:18:52.907Z,6.40
2019-01-08T10:21:22.158Z,6.40
2019-01-08T10:23:51.322Z,6.40
2019-01-08T10:26:20.490Z,6.40
2019-01-08T10:28:49.751Z,6.40
2019-01-08T10:31:19.114Z,6.40
2019-01-08T10:33:48.759Z,6.50
2019-01-08T10:36:17.991Z,6.60
2019-01-08T10:38:47.215Z,6.50
2019-01-08T10:41:16.369Z,6.50
2019-01-08T10:43:45.538Z,6.40
2019-01-08T10:46:14.772Z,6.40
2019-01-08T10:48:44.018Z,6.40
2019-01-08T10:51:13.221Z,6.40
2019-01-08T10:53:42.390Z,6.40
2019-01-08T10:56:11.534Z,6.40
2019-01-08T10:58:40.778Z,6.40
2019-01-08T11:01:10.002Z,6.40
2019-01-08T11:03:39.181Z,6.40
2019-01-08T11:06:08.493Z,6.40
2019-01-08T11:08:37.804Z,6.50
2019-01-08T11:11:06.960Z,6.50
2019-01-08T11:13:36.219Z,6.60
2019-01-08T11:16:05.396Z,6.70
2019-01-08T11:18:34.637Z,6.80
2019-01-08T11:21:03.784Z,6.80
2019-01-08T11:23:33.142Z,6.90
2019-01-08T11:26:03.615Z,7.00
2019-01-08T11:28:32.787Z,7.10
2019-01-08T11:31:02.014Z,7.20
2019-01-08T11:33:31.188Z,7.30
2019-01-08T11:36:00.430Z,7.30
2019-01-08T11:38:29.687Z,7.30
2019-01-08T11:40:58.841Z,7.20
2019-01-08T11:43:28.091Z,7.10
2019-01-08T11:45:57.250Z,7.10
2019-01-08T11:48:26.502Z,7.00
2019-01-08T11:50:55.682Z,7.00
2019-01-08T11:53:25.006Z,7.00
2019-01-08T11:55:54.240Z,7.00
2019-01-08T11:58:23.418Z,7.10
2019-01-08T12:00:52.641Z,7.00
2019-01-08T12:03:22.873Z,7.10
2019-01-08T12:05:52.186Z,7.10
2019-01-08T12:08:21.440Z,7.10
2019-01-08T12:10:50.599Z,7.10
2019-01-08T12:13:19.928Z,7.10
2019-01-08T12:15:49.178Z,7.10
2019-01-08T12:18:18.345Z,7.20
2019-01-08T12:20:47.599Z,7.30
2019-01-08T12:23:16.881Z,7.30
2019-01-08T12:25:46.159Z,7.20
2019-01-08T12:28:15.534Z,7.10
2019-01-08T12:30:45.043Z,7.10
2019-01-08T12:33:14.304Z,7.00
2019-01-08T12:35:43.519Z,7.00
2019-01-08T12:38:12.713Z,7.00
2019-01-08T12:40:41.985Z,7.00
2019-01-08T12:43:11.240Z,7.00
2019-01-08T12:45:40.485Z,7.00
2019-01-08T12:48:09.707Z,7.00
2019-01-08T12:50:38.884Z,7.10
2019-01-08T12:53:08.115Z,7.00
2019-01-08T12:55:37.371Z,6.90
2019-01-08T12:58:06.732Z,6.90
2019-01-08T13:00:36.124Z,6.80
2019-01-08T13:03:05.371Z,6.80
2019-01-08T13:05:34.602Z,6.70
2019-01-08T13:08:03.828Z,6.50
2019-01-08T13:10:33.156Z,6.40
2019-01-08T13:13:02.379Z,6.30
2019-01-08T13:15:31.580Z,6.30
2019-01-08T13:18:00.824Z,6.30
2019-01-08T13:20:30.403Z,6.40
2019-01-08T13:22:59.559Z,6.50
2019-01-08T13:25:28.835Z,6.50
2019-01-08T13:27:58.062Z,6.60
2019-01-08T13:30:27.324Z,6.60
2019-01-08T13:32:56.555Z,6.60
2019-01-08T13:35:25.803Z,6.70
2019-01-08T13:37:54.963Z,6.60
2019-01-08T13:40:24.201Z,6.70
2019-01-08T13:42:53.505Z,6.60
2019-01-08T13:45:22.868Z,6.70
2019-01-08T13:47:52.130Z,6.70
2019-01-08T13:50:21.467Z,6.70
2019-01-08T13:52:50.729Z,6.80
2019-01-08T13:55:20.022Z,6.80
2019-01-08T13:57:49.412Z,6.80
2019-01-08T14:00:18.734Z,6.80
2019-01-08T14:02:47.971Z,6.80
2019-01-08T14:05:17.139Z,6.70
2019-01-08T14:07:46.375Z,6.70
2019-01-08T14:10:15.636Z,6.60
2019-01-08T14:12:45.001Z,6.70
2019-01-08T14:15:14.283Z,6.70
2019-01-08T14:17:43.587Z,6.70
2019-01-08T14:20:12.840Z,6.60
2019-01-08T14:22:41.987Z,6.60
2019-01-08T14:25:11.248Z,6.50
2019-01-08T14:27:40.483Z,6.50
2019-01-08T14:30:10.554Z,6.50
2019-01-08T14:32:40.818Z,6.40
2019-01-08T14:35:10.347Z,6.40
2019-01-08T14:37:39.574Z,6.30
2019-01-08T14:40:08.835Z,6.30
2019-01-08T14:42:37.992Z,6.30
2019-01-08T14:45:07.178Z,6.30
2019-01-08T14:47:36.406Z,6.20
2019-01-08T14:50:06.177Z,6.10
2019-01-08T14:52:35.363Z,5.90
2019-01-08T14:55:04.844Z,5.80
2019-01-08T14:57:34.100Z,5.70
2019-01-08T15:00:03.320Z,5.70
2019-01-08T15:02:32.575Z,5.60
2019-01-08T15:05:01.714Z,5.70
2019-01-08T15:07:30.904Z,5.60
2019-01-08T15:10:00.284Z,5.60
2019-01-08T15:12:29.610Z,5.60
2019-01-08T15:14:58.835Z,5.60
2019-01-08T15:17:28.119Z,5.60
2019-01-08T15:19:57.341Z,5.60
2019-01-08T15:22:26.597Z,5.60
2019-01-08T15:24:55.746Z,5.60
2019-01-08T15:27:25.050Z,5.60
2019-01-08T15:29:54.387Z,5.50
2019-01-08T15:32:23.559Z,5.40
2019-01-08T15:34:52.783Z,5.40
2019-01-08T15:37:22.067Z,5.40
2019-01-08T15:39:51.295Z,5.40
2019-01-08T15:42:20.474Z,5.40
2019-01-08T15:44:49.719Z,5.40
2019-01-08T15:47:19.119Z,5.40
2019-01-08T15:49:48.355Z,5.40
2019-01-08T15:52:17.603Z,5.30
2019-01-08T15:54:46.824Z,5.40
2019-01-08T15:57:16.180Z,5.40
2019-01-08T15:59:45.327Z,5.40
2019-01-08T16:02:14.577Z,5.40
2019-01-08T16:04:43.746Z,5.50
2019-01-08T16:07:12.930Z,5.50
2019-01-08T16:09:42.314Z,5.50
2019-01-08T16:12:11.566Z,5.50
2019-01-08T16:14:40.791Z,5.50
2019-01-08T16:17:10.057Z,5.50
2019-01-08T16:19:39.218Z,5.40
2019-01-08T16:22:08.477Z,5.40
2019-01-08T16:24:37.635Z,5.50
2019-01-08T16:27:06.886Z,5.40
2019-01-08T16:29:36.047Z,5.50
2019-01-08T16:32:05.306Z,5.50
2019-01-08T16:34:34.466Z,5.50
2019-01-08T16:37:03.727Z,5.50
2019-01-08T16:39:33.035Z,5.50
2019-01-08T16:42:02.306Z,5.50
2019-01-08T16:44:31.468Z,5.50
2019-01-08T16:47:00.786Z,5.50
2019-01-08T16:49:30.038Z,5.50
2019-01-08T16:51:59.286Z,5.50
2019-01-08T16:54:28.511Z,5.50
2019-01-08T16:56:57.743Z,5.50
2019-01-08T16:59:27.000Z,5.40
2019-01-08T17:01:56.145Z,5.30
2019-01-08T17:04:25.438Z,5.20
2019-01-08T17:06:54.670Z,5.20
2019-01-08T17:09:23.994Z,5.10
2019-01-08T17:11:53.431Z,5.10
2019-01-08T17:14:22.679Z,5.00
2019-01-08T17:16:51.961Z,5.00
2019-01-08T17:19:21.223Z,5.10
2019-01-08T17:21:52.183Z,5.10
2019-01-08T17:24:21.451Z,5.10
2019-01-08T17:26:50.742Z,5.10
2019-01-08T17:29:19.998Z,5.20
2019-01-08T17:31:49.232Z,5.20
2019-01-08T17:34:18.478Z,5.20
2019-01-08T17:36:47.711Z,5.30
2019-01-08T17:39:16.943Z,5.30
2019-01-08T17:41:46.095Z,5.30
2019-01-08T17:44:15.266Z,5.20
2019-01-08T17:46:44.590Z,5.10
2019-01-08T17:49:13.846Z,5.10
2019-01-08T17:51:43.236Z,5.10
2019-01-08T17:54:12.620Z,5.00
2019-01-08T17:56:41.909Z,4.90
2019-01-08T17:59:13.963Z,4.80
2019-01-08T18:01:56.007Z,4.70
2019-01-08T18:04:25.187Z,4.70
2019-01-08T18:06:54.453Z,4.70
2019-01-08T18:09:23.643Z,4.80
2019-01-08T18:11:52.796Z,4.80
2019-01-08T18:14:22.047Z,4.70
2019-01-08T18:16:51.306Z,4.70
2019-01-08T18:19:20.590Z,4.70
2019-01-08T18:21:49.835Z,4.70
2019-01-08T18:24:19.153Z,4.70
2019-01-08T18:26:48.351Z,4.80
2019-01-08T18:29:17.533Z,4.80
2019-01-08T18:31:46.724Z,4.80
2019-01-08T18:34:16.047Z,4.80
2019-01-08T18:36:45.267Z,4.70
2019-01-08T18:39:14.415Z,4.70
2019-01-08T18:41:43.654Z,4.80
2019-01-08T18:44:12.883Z,4.70
2019-01-08T18:46:42.230Z,4.70
2019-01-08T18:49:11.471Z,4.70
2019-01-08T18:51:40.717Z,4.70
2019-01-08T18:54:09.951Z,4.70
2019-01-08T18:56:39.202Z,4.70
2019-01-08T18:59:08.447Z,4.70
2019-01-08T19:01:37.844Z,4.70
2019-01-08T19:04:07.013Z,4.70
2019-01-08T19:06:36.330Z,4.70
2019-01-08T19:09:36.376Z,4.80
2019-01-08T19:12:07.942Z,4.70
2019-01-08T19:14:39.372Z,4.80
2019-01-08T19:17:08.662Z,4.70
2019-01-08T19:19:37.909Z,4.70
2019-01-08T19:22:07.154Z,4.50
2019-01-08T19:24:36.387Z,4.40
2019-01-08T19:27:05.713Z,4.30
2019-01-08T19:29:35.384Z,4.30
2019-01-08T19:32:04.641Z,4.40
2019-01-08T19:34:33.867Z,4.40
2019-01-08T19:37:03.333Z,4.40
2019-01-08T19:39:32.568Z,4.40
2019-01-08T19:42:01.836Z,4.50
2019-01-08T19:44:31.138Z,4.50
2019-01-08T19:47:00.344Z,4.60
2019-01-08T19:49:29.571Z,4.60
2019-01-08T19:51:58.757Z,4.60
2019-01-08T19:54:27.905Z,4.70
2019-01-08T19:56:57.130Z,4.70
2019-01-08T19:59:26.383Z,4.80
2019-01-08T20:01:55.639Z,4.80
2019-01-08T20:04:24.815Z,4.80
2019-01-08T20:06:54.134Z,4.80
2019-01-08T20:09:25.511Z,4.70
2019-01-08T20:11:54.346Z,4.70
2019-01-08T20:14:24.599Z,4.60
2019-01-08T20:16:53.869Z,4.60
2019-01-08T20:19:23.067Z,4.60
2019-01-08T20:21:52.320Z,4.60
2019-01-08T20:24:21.562Z,4.70
2019-01-08T20:26:50.816Z,4.70
2019-01-08T20:29:19.971Z,4.70
2019-01-08T20:31:49.224Z,4.70
2019-01-08T20:34:26.243Z,4.70
2019-01-08T20:36:49.449Z,4.70
2019-01-08T20:39:18.678Z,4.70
2019-01-08T20:41:47.868Z,4.70
2019-01-08T20:44:17.074Z,4.60
2019-01-08T20:46:46.339Z,4.60
2019-01-08T20:49:15.567Z,4.60
2019-01-08T20:51:44.743Z,4.60
2019-01-08T20:54:13.900Z,4.60
2019-01-08T20:56:43.210Z,4.70
2019-01-08T20:59:12.506Z,4.70
2019-01-08T21:01:41.703Z,4.70
2019-01-08T21:04:10.967Z,4.70
2019-01-08T21:06:40.193Z,4.70
2019-01-08T21:09:09.388Z,4.70
2019-01-08T21:11:38.549Z,4.70
2019-01-08T21:14:07.810Z,4.70
2019-01-08T21:16:37.054Z,4.70
2019-01-08T21:19:06.383Z,4.70
2019-01-08T21:21:35.622Z,4.80
2019-01-08T21:24:04.971Z,4.80
2019-01-08T21:26:34.213Z,4.80
2019-01-08T21:29:03.572Z,4.70
2019-01-08T21:31:32.806Z,4.70
2019-01-08T21:34:01.978Z,4.70
2019-01-08T21:36:31.288Z,4.70
2019-01-08T21:39:00.454Z,4.70
2019-01-08T21:41:29.610Z,4.60
2019-01-08T21:43:59.861Z,4.40
2019-01-08T21:46:29.091Z,4.40
2019-01-08T21:48:58.351Z,4.30
2019-01-08T21:51:27.593Z,4.30
2019-01-08T21:53:56.841Z,4.30
2019-01-08T21:56:26.094Z,4.30
2019-01-08T21:58:55.406Z,4.30
2019-01-08T22:01:25.350Z,4.30
2019-01-08T22:03:54.597Z,4.30
2019-01-08T22:06:23.779Z,4.30
2019-01-08T22:08:53.055Z,4.30
2019-01-08T22:11:22.288Z,4.30
2019-01-08T22:13:51.488Z,4.30
2019-01-08T22:16:20.718Z,4.40
2019-01-08T22:18:49.990Z,4.40
2019-01-08T22:21:19.145Z,4.40
2019-01-08T22:23:48.324Z,4.40
2019-01-08T22:26:17.562Z,4.40
2019-01-08T22:28:46.819Z,4.50
2019-01-08T22:31:16.043Z,4.50
2019-01-08T22:33:45.321Z,4.50
2019-01-08T22:36:14.630Z,4.50
2019-01-08T22:38:43.811Z,4.50
2019-01-08T22:41:13.446Z,4.50
2019-01-08T22:43:42.689Z,4.50
2019-01-08T22:46:11.981Z,4.50
2019-01-08T22:48:41.248Z,4.40
2019-01-08T22:51:10.571Z,4.40
2019-01-08T22:53:39.812Z,4.40
2019-01-08T22:56:09.042Z,4.40
2019-01-08T22:58:38.263Z,4.40
2019-01-08T23:01:13.799Z,4.40
2019-01-08T23:03:43.131Z,4.40
2019-01-08T23:06:12.379Z,4.30
2019-01-08T23:08:41.539Z,4.30
2019-01-08T23:11:10.719Z,4.30
2019-01-08T23:13:39.866Z,4.30
2019-01-08T23:16:09.151Z,4.30
2019-01-08T23:18:38.374Z,4.30
2019-01-08T23:21:07.627Z,4.30
2019-01-08T23:23:36.846Z,4.30
2019-01-08T23:26:06.187Z,4.30
2019-01-08T23:28:35.342Z,4.30
2019-01-08T23:31:04.599Z,4.30
2019-01-08T23:33:33.823Z,4.40
2019-01-08T23:36:03.076Z,4.30
2019-01-08T23:38:32.226Z,4.30
2019-01-08T23:41:01.547Z,4.30
2019-01-08T23:43:30.700Z,4.30
2019-01-08T23:45:59.874Z,4.30
2019-01-08T23:48:29.103Z,4.30
2019-01-08T23:50:58.289Z,4.30
2019-01-08T23:53:33.912Z,4.30
2019-01-08T23:56:05.655Z,4.20
2019-01-08T23:58:34.901Z,4.20
